<?xml version="1.0" encoding="UTF-8" standalone="no" ?>
<gpx xmlns="http://www.topografix.com/GPX/1/1" xmlns:xsi="http://www.w3.org/2001/XMLSchema-instance" xsi:schemaLocation="http://www.topografix.com/GPX/1/1 http://www.topografix.com/GPX/1/1/gpx.xsd" version="1.1" creator="VisuGPX - https://www.visugpx.com">
  <metadata>
    <name>boucle au départ de St Bauzille de la Sylve</name>
    <desc><![CDATA[randonnée prévue par ANR le 20 décembre 2018 , passage par tour du télégraphe]]></desc>
  </metadata>
  <wpt lat="43.61658" lon="3.54645">
    <ele>95</ele>
    <name><![CDATA[Parking au centre du village]]></name>
  </wpt>
  <wpt lat="43.61641" lon="3.54838">
    <ele>92</ele>
    <name><![CDATA[Départ balisage circuit du Télégraphe]]></name>
  </wpt>
  <wpt lat="43.61457" lon="3.55552">
    <ele>149</ele>
    <name><![CDATA[Croisement en T, à droite]]></name>
  </wpt>
  <wpt lat="43.61033" lon="3.56201">
    <ele>214</ele>
    <name><![CDATA[Tour du Télégraphe]]></name>
  </wpt>
  <wpt lat="43.61051" lon="3.56416">
    <ele>212</ele>
    <name><![CDATA[départ d'une piste]]></name>
  </wpt>
  <wpt lat="43.609" lon="3.57288">
    <ele>213</ele>
    <name><![CDATA[Sentier vers la citerne]]></name>
  </wpt>
  <wpt lat="43.60723" lon="3.57356">
    <ele>221</ele>
    <name><![CDATA[fin du sentier]]></name>
  </wpt>
  <wpt lat="43.6045" lon="3.588">
    <ele>227</ele>
    <name><![CDATA[Carrefour axe]]></name>
  </wpt>
  <wpt lat="43.61289" lon="3.60116">
    <ele>234</ele>
    <name><![CDATA[Laisser la piste]]></name>
  </wpt>
  <wpt lat="43.61582" lon="3.61073">
    <ele>273</ele>
    <name><![CDATA[Chemin créé : suivre piste de l'élagage]]></name>
  </wpt>
  <wpt lat="43.61843" lon="3.60671">
    <ele>233</ele>
    <name><![CDATA[Départ chemin à gauche]]></name>
  </wpt>
  <wpt lat="43.61935" lon="3.59051">
    <ele>197</ele>
    <name><![CDATA[Carrefour]]></name>
  </wpt>
  <wpt lat="43.62292" lon="3.58469">
    <ele>157</ele>
    <name><![CDATA[chemin à droite]]></name>
  </wpt>
  <wpt lat="43.62489" lon="3.58344">
    <ele>135</ele>
    <name><![CDATA[Chemin de gauche]]></name>
  </wpt>
  <wpt lat="43.62891" lon="3.57845">
    <ele>99</ele>
    <name><![CDATA[chemin vers la gauche]]></name>
  </wpt>
  <wpt lat="43.6298" lon="3.57581">
    <ele>96</ele>
    <name><![CDATA[Chemin de terre]]></name>
  </wpt>
  <wpt lat="43.61863" lon="3.56691">
    <ele>112</ele>
    <name><![CDATA[Champ à contourner]]></name>
  </wpt>
  <wpt lat="43.61806" lon="3.56121">
    <ele>118</ele>
    <name><![CDATA[Sente vers le lit de la rivière]]></name>
  </wpt>
  <wpt lat="43.61638" lon="3.55838">
    <ele>130</ele>
    <name><![CDATA[Reprise du balisage Jaune]]></name>
  </wpt>
  <wpt lat="43.61552" lon="3.55549">
    <ele>131</ele>
    <name><![CDATA[Chapelle Saint-Antoine]]></name>
  </wpt>
  <wpt lat="43.61657" lon="3.54645">
    <ele>95</ele>
    <name><![CDATA[Parking au centre du village]]></name>
  </wpt>
  <trk>
    <name><![CDATA[Boucle au départ de Saint-Bauzille-de-la-Sylve]]></name>
    <trkseg>
      <trkpt lat="43.61658" lon="3.54645">
        <ele>95</ele>
        <time>2018-11-11T16:09:29+01:00</time>
      </trkpt>
      <trkpt lat="43.61646" lon="3.54666">
        <ele>95</ele>
        <time>2018-11-11T16:09:34+01:00</time>
      </trkpt>
      <trkpt lat="43.61614" lon="3.54718">
        <ele>93</ele>
        <time>2018-11-11T16:09:39+01:00</time>
      </trkpt>
      <trkpt lat="43.61614" lon="3.54735">
        <ele>93</ele>
        <time>2018-11-11T16:09:44+01:00</time>
      </trkpt>
      <trkpt lat="43.61617" lon="3.54761">
        <ele>93</ele>
        <time>2018-11-11T16:09:49+01:00</time>
      </trkpt>
      <trkpt lat="43.61638" lon="3.54802">
        <ele>92</ele>
        <time>2018-11-11T16:09:54+01:00</time>
      </trkpt>
      <trkpt lat="43.6165" lon="3.54816">
        <ele>93</ele>
        <time>2018-11-11T16:09:59+01:00</time>
      </trkpt>
      <trkpt lat="43.61641" lon="3.54838">
        <ele>92</ele>
        <time>2018-11-11T16:10:04+01:00</time>
      </trkpt>
      <trkpt lat="43.616" lon="3.54824">
        <ele>91</ele>
        <time>2018-11-11T16:10:09+01:00</time>
      </trkpt>
      <trkpt lat="43.61554" lon="3.54834">
        <ele>90</ele>
        <time>2018-11-11T16:10:14+01:00</time>
      </trkpt>
      <trkpt lat="43.61514" lon="3.54843">
        <ele>90</ele>
        <time>2018-11-11T16:10:19+01:00</time>
      </trkpt>
      <trkpt lat="43.61492" lon="3.54812">
        <ele>90</ele>
        <time>2018-11-11T16:10:24+01:00</time>
      </trkpt>
      <trkpt lat="43.61455" lon="3.54798">
        <ele>90</ele>
        <time>2018-11-11T16:10:29+01:00</time>
      </trkpt>
      <trkpt lat="43.61436" lon="3.54823">
        <ele>91</ele>
        <time>2018-11-11T16:10:34+01:00</time>
      </trkpt>
      <trkpt lat="43.6145" lon="3.54909">
        <ele>92</ele>
        <time>2018-11-11T16:10:39+01:00</time>
      </trkpt>
      <trkpt lat="43.61443" lon="3.55004">
        <ele>95</ele>
        <time>2018-11-11T16:10:44+01:00</time>
      </trkpt>
      <trkpt lat="43.61423" lon="3.55168">
        <ele>104</ele>
        <time>2018-11-11T16:10:49+01:00</time>
      </trkpt>
      <trkpt lat="43.6142" lon="3.55205">
        <ele>107</ele>
        <time>2018-11-11T16:10:54+01:00</time>
      </trkpt>
      <trkpt lat="43.61413" lon="3.55246">
        <ele>111</ele>
        <time>2018-11-11T16:10:59+01:00</time>
      </trkpt>
      <trkpt lat="43.61409" lon="3.55261">
        <ele>112</ele>
        <time>2018-11-11T16:11:04+01:00</time>
      </trkpt>
      <trkpt lat="43.6141" lon="3.5527">
        <ele>113</ele>
        <time>2018-11-11T16:11:09+01:00</time>
      </trkpt>
      <trkpt lat="43.61405" lon="3.55293">
        <ele>116</ele>
        <time>2018-11-11T16:11:14+01:00</time>
      </trkpt>
      <trkpt lat="43.61401" lon="3.5531">
        <ele>118</ele>
        <time>2018-11-11T16:11:19+01:00</time>
      </trkpt>
      <trkpt lat="43.61409" lon="3.55315">
        <ele>118</ele>
        <time>2018-11-11T16:11:24+01:00</time>
      </trkpt>
      <trkpt lat="43.61407" lon="3.55325">
        <ele>119</ele>
        <time>2018-11-11T16:11:29+01:00</time>
      </trkpt>
      <trkpt lat="43.614" lon="3.55334">
        <ele>120</ele>
        <time>2018-11-11T16:11:34+01:00</time>
      </trkpt>
      <trkpt lat="43.61399" lon="3.55342">
        <ele>122</ele>
        <time>2018-11-11T16:11:39+01:00</time>
      </trkpt>
      <trkpt lat="43.61408" lon="3.55365">
        <ele>125</ele>
        <time>2018-11-11T16:11:44+01:00</time>
      </trkpt>
      <trkpt lat="43.61419" lon="3.55389">
        <ele>127</ele>
        <time>2018-11-11T16:11:49+01:00</time>
      </trkpt>
      <trkpt lat="43.61426" lon="3.55405">
        <ele>129</ele>
        <time>2018-11-11T16:11:54+01:00</time>
      </trkpt>
      <trkpt lat="43.61428" lon="3.55426">
        <ele>133</ele>
        <time>2018-11-11T16:11:59+01:00</time>
      </trkpt>
      <trkpt lat="43.61422" lon="3.55444">
        <ele>136</ele>
        <time>2018-11-11T16:12:04+01:00</time>
      </trkpt>
      <trkpt lat="43.61423" lon="3.55462">
        <ele>139</ele>
        <time>2018-11-11T16:12:09+01:00</time>
      </trkpt>
      <trkpt lat="43.61432" lon="3.55486">
        <ele>143</ele>
        <time>2018-11-11T16:12:14+01:00</time>
      </trkpt>
      <trkpt lat="43.61433" lon="3.55509">
        <ele>146</ele>
        <time>2018-11-11T16:12:19+01:00</time>
      </trkpt>
      <trkpt lat="43.61442" lon="3.5552">
        <ele>147</ele>
        <time>2018-11-11T16:12:24+01:00</time>
      </trkpt>
      <trkpt lat="43.61444" lon="3.55536">
        <ele>149</ele>
        <time>2018-11-11T16:12:29+01:00</time>
      </trkpt>
      <trkpt lat="43.61457" lon="3.55552">
        <ele>149</ele>
        <time>2018-11-11T16:12:34+01:00</time>
      </trkpt>
      <trkpt lat="43.61405" lon="3.55626">
        <ele>163</ele>
        <time>2018-11-11T16:12:39+01:00</time>
      </trkpt>
      <trkpt lat="43.6139" lon="3.55657">
        <ele>168</ele>
        <time>2018-11-11T16:12:44+01:00</time>
      </trkpt>
      <trkpt lat="43.61309" lon="3.55749">
        <ele>189</ele>
        <time>2018-11-11T16:12:49+01:00</time>
      </trkpt>
      <trkpt lat="43.61298" lon="3.55773">
        <ele>190</ele>
        <time>2018-11-11T16:12:54+01:00</time>
      </trkpt>
      <trkpt lat="43.61291" lon="3.55777">
        <ele>191</ele>
        <time>2018-11-11T16:12:59+01:00</time>
      </trkpt>
      <trkpt lat="43.61258" lon="3.55819">
        <ele>198</ele>
        <time>2018-11-11T16:13:04+01:00</time>
      </trkpt>
      <trkpt lat="43.61226" lon="3.55863">
        <ele>200</ele>
        <time>2018-11-11T16:13:09+01:00</time>
      </trkpt>
      <trkpt lat="43.61181" lon="3.55953">
        <ele>205</ele>
        <time>2018-11-11T16:13:14+01:00</time>
      </trkpt>
      <trkpt lat="43.61167" lon="3.56006">
        <ele>207</ele>
        <time>2018-11-11T16:13:19+01:00</time>
      </trkpt>
      <trkpt lat="43.61151" lon="3.5603">
        <ele>208</ele>
        <time>2018-11-11T16:13:24+01:00</time>
      </trkpt>
      <trkpt lat="43.61146" lon="3.56039">
        <ele>208</ele>
        <time>2018-11-11T16:13:29+01:00</time>
      </trkpt>
      <trkpt lat="43.61143" lon="3.56052">
        <ele>209</ele>
        <time>2018-11-11T16:13:34+01:00</time>
      </trkpt>
      <trkpt lat="43.61135" lon="3.56071">
        <ele>210</ele>
        <time>2018-11-11T16:13:39+01:00</time>
      </trkpt>
      <trkpt lat="43.61125" lon="3.56094">
        <ele>211</ele>
        <time>2018-11-11T16:13:44+01:00</time>
      </trkpt>
      <trkpt lat="43.61104" lon="3.56121">
        <ele>211</ele>
        <time>2018-11-11T16:13:49+01:00</time>
      </trkpt>
      <trkpt lat="43.61068" lon="3.56157">
        <ele>213</ele>
        <time>2018-11-11T16:13:54+01:00</time>
      </trkpt>
      <trkpt lat="43.61033" lon="3.56201">
        <ele>214</ele>
        <time>2018-11-11T16:13:59+01:00</time>
      </trkpt>
      <trkpt lat="43.61019" lon="3.56232">
        <ele>214</ele>
        <time>2018-11-11T16:14:04+01:00</time>
      </trkpt>
      <trkpt lat="43.61019" lon="3.56288">
        <ele>214</ele>
        <time>2018-11-11T16:14:09+01:00</time>
      </trkpt>
      <trkpt lat="43.6103" lon="3.56342">
        <ele>212</ele>
        <time>2018-11-11T16:14:14+01:00</time>
      </trkpt>
      <trkpt lat="43.6104" lon="3.56377">
        <ele>212</ele>
        <time>2018-11-11T16:14:19+01:00</time>
      </trkpt>
      <trkpt lat="43.61051" lon="3.56416">
        <ele>212</ele>
        <time>2018-11-11T16:14:24+01:00</time>
      </trkpt>
      <trkpt lat="43.61056" lon="3.56427">
        <ele>211</ele>
        <time>2018-11-11T16:14:29+01:00</time>
      </trkpt>
      <trkpt lat="43.61088" lon="3.56447">
        <ele>208</ele>
        <time>2018-11-11T16:14:34+01:00</time>
      </trkpt>
      <trkpt lat="43.61091" lon="3.5646">
        <ele>207</ele>
        <time>2018-11-11T16:14:39+01:00</time>
      </trkpt>
      <trkpt lat="43.61088" lon="3.56473">
        <ele>207</ele>
        <time>2018-11-11T16:14:44+01:00</time>
      </trkpt>
      <trkpt lat="43.61078" lon="3.56494">
        <ele>208</ele>
        <time>2018-11-11T16:14:49+01:00</time>
      </trkpt>
      <trkpt lat="43.61072" lon="3.56513">
        <ele>208</ele>
        <time>2018-11-11T16:14:54+01:00</time>
      </trkpt>
      <trkpt lat="43.61067" lon="3.56537">
        <ele>207</ele>
        <time>2018-11-11T16:14:59+01:00</time>
      </trkpt>
      <trkpt lat="43.61053" lon="3.56561">
        <ele>208</ele>
        <time>2018-11-11T16:15:04+01:00</time>
      </trkpt>
      <trkpt lat="43.61043" lon="3.56589">
        <ele>209</ele>
        <time>2018-11-11T16:15:09+01:00</time>
      </trkpt>
      <trkpt lat="43.61034" lon="3.56608">
        <ele>209</ele>
        <time>2018-11-11T16:15:14+01:00</time>
      </trkpt>
      <trkpt lat="43.61026" lon="3.56621">
        <ele>210</ele>
        <time>2018-11-11T16:15:19+01:00</time>
      </trkpt>
      <trkpt lat="43.6102" lon="3.56634">
        <ele>211</ele>
        <time>2018-11-11T16:15:24+01:00</time>
      </trkpt>
      <trkpt lat="43.6101" lon="3.56661">
        <ele>213</ele>
        <time>2018-11-11T16:15:29+01:00</time>
      </trkpt>
      <trkpt lat="43.61004" lon="3.567">
        <ele>213</ele>
        <time>2018-11-11T16:15:34+01:00</time>
      </trkpt>
      <trkpt lat="43.61005" lon="3.56713">
        <ele>212</ele>
        <time>2018-11-11T16:15:39+01:00</time>
      </trkpt>
      <trkpt lat="43.61021" lon="3.56741">
        <ele>208</ele>
        <time>2018-11-11T16:15:44+01:00</time>
      </trkpt>
      <trkpt lat="43.61027" lon="3.56753">
        <ele>206</ele>
        <time>2018-11-11T16:15:49+01:00</time>
      </trkpt>
      <trkpt lat="43.61049" lon="3.56765">
        <ele>201</ele>
        <time>2018-11-11T16:15:54+01:00</time>
      </trkpt>
      <trkpt lat="43.61056" lon="3.56778">
        <ele>199</ele>
        <time>2018-11-11T16:15:59+01:00</time>
      </trkpt>
      <trkpt lat="43.61059" lon="3.56794">
        <ele>199</ele>
        <time>2018-11-11T16:16:04+01:00</time>
      </trkpt>
      <trkpt lat="43.61045" lon="3.56827">
        <ele>201</ele>
        <time>2018-11-11T16:16:09+01:00</time>
      </trkpt>
      <trkpt lat="43.61019" lon="3.56856">
        <ele>205</ele>
        <time>2018-11-11T16:16:14+01:00</time>
      </trkpt>
      <trkpt lat="43.6101" lon="3.56872">
        <ele>206</ele>
        <time>2018-11-11T16:16:19+01:00</time>
      </trkpt>
      <trkpt lat="43.61023" lon="3.56932">
        <ele>205</ele>
        <time>2018-11-11T16:16:24+01:00</time>
      </trkpt>
      <trkpt lat="43.61059" lon="3.56953">
        <ele>201</ele>
        <time>2018-11-11T16:16:29+01:00</time>
      </trkpt>
      <trkpt lat="43.61062" lon="3.56966">
        <ele>202</ele>
        <time>2018-11-11T16:16:34+01:00</time>
      </trkpt>
      <trkpt lat="43.61039" lon="3.57031">
        <ele>207</ele>
        <time>2018-11-11T16:16:39+01:00</time>
      </trkpt>
      <trkpt lat="43.61031" lon="3.57064">
        <ele>208</ele>
        <time>2018-11-11T16:16:44+01:00</time>
      </trkpt>
      <trkpt lat="43.61028" lon="3.57098">
        <ele>207</ele>
        <time>2018-11-11T16:16:49+01:00</time>
      </trkpt>
      <trkpt lat="43.61022" lon="3.57108">
        <ele>207</ele>
        <time>2018-11-11T16:16:54+01:00</time>
      </trkpt>
      <trkpt lat="43.60999" lon="3.5713">
        <ele>209</ele>
        <time>2018-11-11T16:16:59+01:00</time>
      </trkpt>
      <trkpt lat="43.60993" lon="3.57162">
        <ele>208</ele>
        <time>2018-11-11T16:17:04+01:00</time>
      </trkpt>
      <trkpt lat="43.60951" lon="3.572">
        <ele>211</ele>
        <time>2018-11-11T16:17:09+01:00</time>
      </trkpt>
      <trkpt lat="43.6093" lon="3.5722">
        <ele>212</ele>
        <time>2018-11-11T16:17:14+01:00</time>
      </trkpt>
      <trkpt lat="43.60911" lon="3.57244">
        <ele>213</ele>
        <time>2018-11-11T16:17:19+01:00</time>
      </trkpt>
      <trkpt lat="43.60899" lon="3.57277">
        <ele>213</ele>
        <time>2018-11-11T16:17:24+01:00</time>
      </trkpt>
      <trkpt lat="43.609" lon="3.57288">
        <ele>213</ele>
        <time>2018-11-11T16:17:29+01:00</time>
      </trkpt>
      <trkpt lat="43.60887" lon="3.57297">
        <ele>214</ele>
        <time>2018-11-11T16:17:34+01:00</time>
      </trkpt>
      <trkpt lat="43.60872" lon="3.57294">
        <ele>214</ele>
        <time>2018-11-11T16:17:39+01:00</time>
      </trkpt>
      <trkpt lat="43.60867" lon="3.57294">
        <ele>215</ele>
        <time>2018-11-11T16:17:44+01:00</time>
      </trkpt>
      <trkpt lat="43.60846" lon="3.57324">
        <ele>215</ele>
        <time>2018-11-11T16:17:49+01:00</time>
      </trkpt>
      <trkpt lat="43.60842" lon="3.57335">
        <ele>216</ele>
        <time>2018-11-11T16:17:54+01:00</time>
      </trkpt>
      <trkpt lat="43.60826" lon="3.57344">
        <ele>217</ele>
        <time>2018-11-11T16:17:59+01:00</time>
      </trkpt>
      <trkpt lat="43.60812" lon="3.57348">
        <ele>218</ele>
        <time>2018-11-11T16:18:04+01:00</time>
      </trkpt>
      <trkpt lat="43.60801" lon="3.57362">
        <ele>219</ele>
        <time>2018-11-11T16:18:09+01:00</time>
      </trkpt>
      <trkpt lat="43.60797" lon="3.57369">
        <ele>219</ele>
        <time>2018-11-11T16:18:14+01:00</time>
      </trkpt>
      <trkpt lat="43.60774" lon="3.57357">
        <ele>220</ele>
        <time>2018-11-11T16:18:19+01:00</time>
      </trkpt>
      <trkpt lat="43.60758" lon="3.57373">
        <ele>221</ele>
        <time>2018-11-11T16:18:24+01:00</time>
      </trkpt>
      <trkpt lat="43.60737" lon="3.57376">
        <ele>221</ele>
        <time>2018-11-11T16:18:29+01:00</time>
      </trkpt>
      <trkpt lat="43.60734" lon="3.57371">
        <ele>221</ele>
        <time>2018-11-11T16:18:34+01:00</time>
      </trkpt>
      <trkpt lat="43.60723" lon="3.57356">
        <ele>221</ele>
        <time>2018-11-11T16:18:39+01:00</time>
      </trkpt>
      <trkpt lat="43.60715" lon="3.57346">
        <ele>221</ele>
        <time>2018-11-11T16:18:44+01:00</time>
      </trkpt>
      <trkpt lat="43.60707" lon="3.57389">
        <ele>221</ele>
        <time>2018-11-11T16:18:49+01:00</time>
      </trkpt>
      <trkpt lat="43.60705" lon="3.57401">
        <ele>221</ele>
        <time>2018-11-11T16:18:54+01:00</time>
      </trkpt>
      <trkpt lat="43.60695" lon="3.57466">
        <ele>223</ele>
        <time>2018-11-11T16:18:59+01:00</time>
      </trkpt>
      <trkpt lat="43.60682" lon="3.57551">
        <ele>227</ele>
        <time>2018-11-11T16:19:04+01:00</time>
      </trkpt>
      <trkpt lat="43.60667" lon="3.57637">
        <ele>231</ele>
        <time>2018-11-11T16:19:09+01:00</time>
      </trkpt>
      <trkpt lat="43.60616" lon="3.57845">
        <ele>235</ele>
        <time>2018-11-11T16:19:14+01:00</time>
      </trkpt>
      <trkpt lat="43.60586" lon="3.57966">
        <ele>238</ele>
        <time>2018-11-11T16:19:19+01:00</time>
      </trkpt>
      <trkpt lat="43.60529" lon="3.58178">
        <ele>237</ele>
        <time>2018-11-11T16:19:24+01:00</time>
      </trkpt>
      <trkpt lat="43.60523" lon="3.58208">
        <ele>238</ele>
        <time>2018-11-11T16:19:29+01:00</time>
      </trkpt>
      <trkpt lat="43.60517" lon="3.58239">
        <ele>238</ele>
        <time>2018-11-11T16:19:34+01:00</time>
      </trkpt>
      <trkpt lat="43.60507" lon="3.58302">
        <ele>239</ele>
        <time>2018-11-11T16:19:39+01:00</time>
      </trkpt>
      <trkpt lat="43.60503" lon="3.58363">
        <ele>240</ele>
        <time>2018-11-11T16:19:44+01:00</time>
      </trkpt>
      <trkpt lat="43.60508" lon="3.58402">
        <ele>239</ele>
        <time>2018-11-11T16:19:49+01:00</time>
      </trkpt>
      <trkpt lat="43.60507" lon="3.58417">
        <ele>239</ele>
        <time>2018-11-11T16:19:54+01:00</time>
      </trkpt>
      <trkpt lat="43.60484" lon="3.58489">
        <ele>236</ele>
        <time>2018-11-11T16:19:59+01:00</time>
      </trkpt>
      <trkpt lat="43.60484" lon="3.58565">
        <ele>232</ele>
        <time>2018-11-11T16:20:04+01:00</time>
      </trkpt>
      <trkpt lat="43.60479" lon="3.58586">
        <ele>231</ele>
        <time>2018-11-11T16:20:09+01:00</time>
      </trkpt>
      <trkpt lat="43.60456" lon="3.58642">
        <ele>227</ele>
        <time>2018-11-11T16:20:14+01:00</time>
      </trkpt>
      <trkpt lat="43.60459" lon="3.58702">
        <ele>225</ele>
        <time>2018-11-11T16:20:19+01:00</time>
      </trkpt>
      <trkpt lat="43.6046" lon="3.58732">
        <ele>225</ele>
        <time>2018-11-11T16:20:24+01:00</time>
      </trkpt>
      <trkpt lat="43.60456" lon="3.58763">
        <ele>225</ele>
        <time>2018-11-11T16:20:29+01:00</time>
      </trkpt>
      <trkpt lat="43.6045" lon="3.588">
        <ele>227</ele>
        <time>2018-11-11T16:20:34+01:00</time>
      </trkpt>
      <trkpt lat="43.60497" lon="3.58823">
        <ele>232</ele>
        <time>2018-11-11T16:20:39+01:00</time>
      </trkpt>
      <trkpt lat="43.60523" lon="3.58834">
        <ele>231</ele>
        <time>2018-11-11T16:20:44+01:00</time>
      </trkpt>
      <trkpt lat="43.60547" lon="3.58875">
        <ele>232</ele>
        <time>2018-11-11T16:20:49+01:00</time>
      </trkpt>
      <trkpt lat="43.60559" lon="3.58904">
        <ele>232</ele>
        <time>2018-11-11T16:20:54+01:00</time>
      </trkpt>
      <trkpt lat="43.60566" lon="3.58936">
        <ele>233</ele>
        <time>2018-11-11T16:20:59+01:00</time>
      </trkpt>
      <trkpt lat="43.60566" lon="3.58974">
        <ele>234</ele>
        <time>2018-11-11T16:21:04+01:00</time>
      </trkpt>
      <trkpt lat="43.60561" lon="3.59014">
        <ele>237</ele>
        <time>2018-11-11T16:21:09+01:00</time>
      </trkpt>
      <trkpt lat="43.60563" lon="3.59032">
        <ele>238</ele>
        <time>2018-11-11T16:21:14+01:00</time>
      </trkpt>
      <trkpt lat="43.60593" lon="3.59082">
        <ele>237</ele>
        <time>2018-11-11T16:21:19+01:00</time>
      </trkpt>
      <trkpt lat="43.60596" lon="3.59109">
        <ele>240</ele>
        <time>2018-11-11T16:21:24+01:00</time>
      </trkpt>
      <trkpt lat="43.60597" lon="3.59135">
        <ele>243</ele>
        <time>2018-11-11T16:21:29+01:00</time>
      </trkpt>
      <trkpt lat="43.60616" lon="3.59143">
        <ele>242</ele>
        <time>2018-11-11T16:21:34+01:00</time>
      </trkpt>
      <trkpt lat="43.60649" lon="3.59148">
        <ele>239</ele>
        <time>2018-11-11T16:21:39+01:00</time>
      </trkpt>
      <trkpt lat="43.60682" lon="3.59162">
        <ele>238</ele>
        <time>2018-11-11T16:21:44+01:00</time>
      </trkpt>
      <trkpt lat="43.60708" lon="3.59223">
        <ele>246</ele>
        <time>2018-11-11T16:21:49+01:00</time>
      </trkpt>
      <trkpt lat="43.60716" lon="3.59226">
        <ele>246</ele>
        <time>2018-11-11T16:21:54+01:00</time>
      </trkpt>
      <trkpt lat="43.60727" lon="3.59225">
        <ele>245</ele>
        <time>2018-11-11T16:21:59+01:00</time>
      </trkpt>
      <trkpt lat="43.60742" lon="3.59213">
        <ele>242</ele>
        <time>2018-11-11T16:22:04+01:00</time>
      </trkpt>
      <trkpt lat="43.60759" lon="3.59205">
        <ele>240</ele>
        <time>2018-11-11T16:22:09+01:00</time>
      </trkpt>
      <trkpt lat="43.60776" lon="3.59214">
        <ele>240</ele>
        <time>2018-11-11T16:22:14+01:00</time>
      </trkpt>
      <trkpt lat="43.60785" lon="3.59225">
        <ele>241</ele>
        <time>2018-11-11T16:22:19+01:00</time>
      </trkpt>
      <trkpt lat="43.608" lon="3.59256">
        <ele>244</ele>
        <time>2018-11-11T16:22:24+01:00</time>
      </trkpt>
      <trkpt lat="43.60817" lon="3.59281">
        <ele>247</ele>
        <time>2018-11-11T16:22:29+01:00</time>
      </trkpt>
      <trkpt lat="43.60895" lon="3.59288">
        <ele>243</ele>
        <time>2018-11-11T16:22:34+01:00</time>
      </trkpt>
      <trkpt lat="43.60919" lon="3.59299">
        <ele>242</ele>
        <time>2018-11-11T16:22:39+01:00</time>
      </trkpt>
      <trkpt lat="43.60937" lon="3.59322">
        <ele>243</ele>
        <time>2018-11-11T16:22:44+01:00</time>
      </trkpt>
      <trkpt lat="43.60953" lon="3.59363">
        <ele>244</ele>
        <time>2018-11-11T16:22:49+01:00</time>
      </trkpt>
      <trkpt lat="43.60963" lon="3.59409">
        <ele>245</ele>
        <time>2018-11-11T16:22:54+01:00</time>
      </trkpt>
      <trkpt lat="43.60967" lon="3.59451">
        <ele>245</ele>
        <time>2018-11-11T16:22:59+01:00</time>
      </trkpt>
      <trkpt lat="43.60963" lon="3.59474">
        <ele>245</ele>
        <time>2018-11-11T16:23:04+01:00</time>
      </trkpt>
      <trkpt lat="43.60957" lon="3.59496">
        <ele>247</ele>
        <time>2018-11-11T16:23:09+01:00</time>
      </trkpt>
      <trkpt lat="43.60959" lon="3.59592">
        <ele>247</ele>
        <time>2018-11-11T16:23:14+01:00</time>
      </trkpt>
      <trkpt lat="43.60981" lon="3.5963">
        <ele>244</ele>
        <time>2018-11-11T16:23:19+01:00</time>
      </trkpt>
      <trkpt lat="43.61002" lon="3.59669">
        <ele>240</ele>
        <time>2018-11-11T16:23:24+01:00</time>
      </trkpt>
      <trkpt lat="43.61012" lon="3.59712">
        <ele>241</ele>
        <time>2018-11-11T16:23:29+01:00</time>
      </trkpt>
      <trkpt lat="43.61018" lon="3.59735">
        <ele>241</ele>
        <time>2018-11-11T16:23:34+01:00</time>
      </trkpt>
      <trkpt lat="43.61027" lon="3.59761">
        <ele>242</ele>
        <time>2018-11-11T16:23:39+01:00</time>
      </trkpt>
      <trkpt lat="43.61046" lon="3.59791">
        <ele>241</ele>
        <time>2018-11-11T16:23:44+01:00</time>
      </trkpt>
      <trkpt lat="43.61066" lon="3.5982">
        <ele>240</ele>
        <time>2018-11-11T16:23:49+01:00</time>
      </trkpt>
      <trkpt lat="43.61107" lon="3.59856">
        <ele>234</ele>
        <time>2018-11-11T16:23:54+01:00</time>
      </trkpt>
      <trkpt lat="43.61128" lon="3.59892">
        <ele>233</ele>
        <time>2018-11-11T16:23:59+01:00</time>
      </trkpt>
      <trkpt lat="43.61151" lon="3.59924">
        <ele>231</ele>
        <time>2018-11-11T16:24:04+01:00</time>
      </trkpt>
      <trkpt lat="43.61159" lon="3.59941">
        <ele>231</ele>
        <time>2018-11-11T16:24:09+01:00</time>
      </trkpt>
      <trkpt lat="43.61174" lon="3.59986">
        <ele>235</ele>
        <time>2018-11-11T16:24:14+01:00</time>
      </trkpt>
      <trkpt lat="43.6119" lon="3.59996">
        <ele>233</ele>
        <time>2018-11-11T16:24:19+01:00</time>
      </trkpt>
      <trkpt lat="43.61229" lon="3.60002">
        <ele>225</ele>
        <time>2018-11-11T16:24:24+01:00</time>
      </trkpt>
      <trkpt lat="43.61245" lon="3.60006">
        <ele>223</ele>
        <time>2018-11-11T16:24:29+01:00</time>
      </trkpt>
      <trkpt lat="43.61261" lon="3.60025">
        <ele>223</ele>
        <time>2018-11-11T16:24:34+01:00</time>
      </trkpt>
      <trkpt lat="43.61271" lon="3.60047">
        <ele>225</ele>
        <time>2018-11-11T16:24:39+01:00</time>
      </trkpt>
      <trkpt lat="43.61289" lon="3.60116">
        <ele>234</ele>
        <time>2018-11-11T16:24:44+01:00</time>
      </trkpt>
      <trkpt lat="43.61288" lon="3.60144">
        <ele>238</ele>
        <time>2018-11-11T16:24:49+01:00</time>
      </trkpt>
      <trkpt lat="43.61278" lon="3.60189">
        <ele>245</ele>
        <time>2018-11-11T16:24:54+01:00</time>
      </trkpt>
      <trkpt lat="43.61274" lon="3.60199">
        <ele>246</ele>
        <time>2018-11-11T16:24:59+01:00</time>
      </trkpt>
      <trkpt lat="43.61268" lon="3.60208">
        <ele>246</ele>
        <time>2018-11-11T16:25:04+01:00</time>
      </trkpt>
      <trkpt lat="43.61264" lon="3.60219">
        <ele>247</ele>
        <time>2018-11-11T16:25:09+01:00</time>
      </trkpt>
      <trkpt lat="43.61259" lon="3.60228">
        <ele>247</ele>
        <time>2018-11-11T16:25:14+01:00</time>
      </trkpt>
      <trkpt lat="43.61256" lon="3.60243">
        <ele>247</ele>
        <time>2018-11-11T16:25:19+01:00</time>
      </trkpt>
      <trkpt lat="43.61251" lon="3.60258">
        <ele>248</ele>
        <time>2018-11-11T16:25:24+01:00</time>
      </trkpt>
      <trkpt lat="43.61239" lon="3.6026">
        <ele>250</ele>
        <time>2018-11-11T16:25:29+01:00</time>
      </trkpt>
      <trkpt lat="43.61234" lon="3.60264">
        <ele>252</ele>
        <time>2018-11-11T16:25:34+01:00</time>
      </trkpt>
      <trkpt lat="43.6123" lon="3.60272">
        <ele>253</ele>
        <time>2018-11-11T16:25:39+01:00</time>
      </trkpt>
      <trkpt lat="43.61228" lon="3.60283">
        <ele>254</ele>
        <time>2018-11-11T16:25:44+01:00</time>
      </trkpt>
      <trkpt lat="43.61224" lon="3.60289">
        <ele>256</ele>
        <time>2018-11-11T16:25:49+01:00</time>
      </trkpt>
      <trkpt lat="43.61224" lon="3.603">
        <ele>256</ele>
        <time>2018-11-11T16:25:54+01:00</time>
      </trkpt>
      <trkpt lat="43.61222" lon="3.6031">
        <ele>257</ele>
        <time>2018-11-11T16:25:59+01:00</time>
      </trkpt>
      <trkpt lat="43.61216" lon="3.60319">
        <ele>259</ele>
        <time>2018-11-11T16:26:04+01:00</time>
      </trkpt>
      <trkpt lat="43.61215" lon="3.60338">
        <ele>261</ele>
        <time>2018-11-11T16:26:09+01:00</time>
      </trkpt>
      <trkpt lat="43.61205" lon="3.60366">
        <ele>265</ele>
        <time>2018-11-11T16:26:14+01:00</time>
      </trkpt>
      <trkpt lat="43.61194" lon="3.60393">
        <ele>268</ele>
        <time>2018-11-11T16:26:19+01:00</time>
      </trkpt>
      <trkpt lat="43.61189" lon="3.60406">
        <ele>269</ele>
        <time>2018-11-11T16:26:24+01:00</time>
      </trkpt>
      <trkpt lat="43.61186" lon="3.6042">
        <ele>271</ele>
        <time>2018-11-11T16:26:29+01:00</time>
      </trkpt>
      <trkpt lat="43.61179" lon="3.60436">
        <ele>271</ele>
        <time>2018-11-11T16:26:34+01:00</time>
      </trkpt>
      <trkpt lat="43.61174" lon="3.60456">
        <ele>271</ele>
        <time>2018-11-11T16:26:39+01:00</time>
      </trkpt>
      <trkpt lat="43.61175" lon="3.60474">
        <ele>272</ele>
        <time>2018-11-11T16:26:44+01:00</time>
      </trkpt>
      <trkpt lat="43.61166" lon="3.60508">
        <ele>272</ele>
        <time>2018-11-11T16:26:49+01:00</time>
      </trkpt>
      <trkpt lat="43.61159" lon="3.60564">
        <ele>271</ele>
        <time>2018-11-11T16:26:54+01:00</time>
      </trkpt>
      <trkpt lat="43.61164" lon="3.60596">
        <ele>272</ele>
        <time>2018-11-11T16:26:59+01:00</time>
      </trkpt>
      <trkpt lat="43.61176" lon="3.60625">
        <ele>273</ele>
        <time>2018-11-11T16:27:04+01:00</time>
      </trkpt>
      <trkpt lat="43.6119" lon="3.60647">
        <ele>275</ele>
        <time>2018-11-11T16:27:09+01:00</time>
      </trkpt>
      <trkpt lat="43.61208" lon="3.60662">
        <ele>278</ele>
        <time>2018-11-11T16:27:14+01:00</time>
      </trkpt>
      <trkpt lat="43.61345" lon="3.60831">
        <ele>281</ele>
        <time>2018-11-11T16:27:19+01:00</time>
      </trkpt>
      <trkpt lat="43.61401" lon="3.60879">
        <ele>281</ele>
        <time>2018-11-11T16:27:24+01:00</time>
      </trkpt>
      <trkpt lat="43.61442" lon="3.60932">
        <ele>279</ele>
        <time>2018-11-11T16:27:29+01:00</time>
      </trkpt>
      <trkpt lat="43.61468" lon="3.60993">
        <ele>277</ele>
        <time>2018-11-11T16:27:34+01:00</time>
      </trkpt>
      <trkpt lat="43.61566" lon="3.6107">
        <ele>273</ele>
        <time>2018-11-11T16:27:39+01:00</time>
      </trkpt>
      <trkpt lat="43.61582" lon="3.61073">
        <ele>273</ele>
        <time>2018-11-11T16:27:44+01:00</time>
      </trkpt>
      <trkpt lat="43.61595" lon="3.61032">
        <ele>273</ele>
        <time>2018-11-11T16:27:49+01:00</time>
      </trkpt>
      <trkpt lat="43.61626" lon="3.60997">
        <ele>272</ele>
        <time>2018-11-11T16:27:54+01:00</time>
      </trkpt>
      <trkpt lat="43.61647" lon="3.60917">
        <ele>261</ele>
        <time>2018-11-11T16:27:59+01:00</time>
      </trkpt>
      <trkpt lat="43.61665" lon="3.60904">
        <ele>258</ele>
        <time>2018-11-11T16:28:04+01:00</time>
      </trkpt>
      <trkpt lat="43.61684" lon="3.60885">
        <ele>259</ele>
        <time>2018-11-11T16:28:09+01:00</time>
      </trkpt>
      <trkpt lat="43.617" lon="3.60841">
        <ele>257</ele>
        <time>2018-11-11T16:28:14+01:00</time>
      </trkpt>
      <trkpt lat="43.61702" lon="3.60821">
        <ele>254</ele>
        <time>2018-11-11T16:28:19+01:00</time>
      </trkpt>
      <trkpt lat="43.61703" lon="3.60804">
        <ele>252</ele>
        <time>2018-11-11T16:28:24+01:00</time>
      </trkpt>
      <trkpt lat="43.61706" lon="3.60773">
        <ele>247</ele>
        <time>2018-11-11T16:28:29+01:00</time>
      </trkpt>
      <trkpt lat="43.61709" lon="3.6074">
        <ele>243</ele>
        <time>2018-11-11T16:28:34+01:00</time>
      </trkpt>
      <trkpt lat="43.61711" lon="3.60711">
        <ele>238</ele>
        <time>2018-11-11T16:28:39+01:00</time>
      </trkpt>
      <trkpt lat="43.6171" lon="3.60682">
        <ele>235</ele>
        <time>2018-11-11T16:28:44+01:00</time>
      </trkpt>
      <trkpt lat="43.61708" lon="3.6064">
        <ele>228</ele>
        <time>2018-11-11T16:28:49+01:00</time>
      </trkpt>
      <trkpt lat="43.61702" lon="3.6061">
        <ele>223</ele>
        <time>2018-11-11T16:28:54+01:00</time>
      </trkpt>
      <trkpt lat="43.61697" lon="3.60574">
        <ele>218</ele>
        <time>2018-11-11T16:28:59+01:00</time>
      </trkpt>
      <trkpt lat="43.6169" lon="3.6054">
        <ele>217</ele>
        <time>2018-11-11T16:29:04+01:00</time>
      </trkpt>
      <trkpt lat="43.61708" lon="3.60542">
        <ele>218</ele>
        <time>2018-11-11T16:29:09+01:00</time>
      </trkpt>
      <trkpt lat="43.61725" lon="3.60571">
        <ele>220</ele>
        <time>2018-11-11T16:29:14+01:00</time>
      </trkpt>
      <trkpt lat="43.61747" lon="3.60593">
        <ele>222</ele>
        <time>2018-11-11T16:29:19+01:00</time>
      </trkpt>
      <trkpt lat="43.61843" lon="3.60671">
        <ele>233</ele>
        <time>2018-11-11T16:29:24+01:00</time>
      </trkpt>
      <trkpt lat="43.61857" lon="3.60656">
        <ele>231</ele>
        <time>2018-11-11T16:29:29+01:00</time>
      </trkpt>
      <trkpt lat="43.61865" lon="3.60649">
        <ele>229</ele>
        <time>2018-11-11T16:29:34+01:00</time>
      </trkpt>
      <trkpt lat="43.61872" lon="3.60614">
        <ele>229</ele>
        <time>2018-11-11T16:29:39+01:00</time>
      </trkpt>
      <trkpt lat="43.61871" lon="3.60587">
        <ele>230</ele>
        <time>2018-11-11T16:29:44+01:00</time>
      </trkpt>
      <trkpt lat="43.61866" lon="3.60561">
        <ele>232</ele>
        <time>2018-11-11T16:29:49+01:00</time>
      </trkpt>
      <trkpt lat="43.6187" lon="3.6052">
        <ele>234</ele>
        <time>2018-11-11T16:29:54+01:00</time>
      </trkpt>
      <trkpt lat="43.61868" lon="3.60506">
        <ele>235</ele>
        <time>2018-11-11T16:29:59+01:00</time>
      </trkpt>
      <trkpt lat="43.61863" lon="3.60494">
        <ele>236</ele>
        <time>2018-11-11T16:30:04+01:00</time>
      </trkpt>
      <trkpt lat="43.6186" lon="3.60475">
        <ele>238</ele>
        <time>2018-11-11T16:30:09+01:00</time>
      </trkpt>
      <trkpt lat="43.61854" lon="3.60458">
        <ele>241</ele>
        <time>2018-11-11T16:30:14+01:00</time>
      </trkpt>
      <trkpt lat="43.61849" lon="3.60426">
        <ele>244</ele>
        <time>2018-11-11T16:30:19+01:00</time>
      </trkpt>
      <trkpt lat="43.6185" lon="3.60391">
        <ele>246</ele>
        <time>2018-11-11T16:30:24+01:00</time>
      </trkpt>
      <trkpt lat="43.61855" lon="3.60359">
        <ele>248</ele>
        <time>2018-11-11T16:30:29+01:00</time>
      </trkpt>
      <trkpt lat="43.61869" lon="3.60321">
        <ele>248</ele>
        <time>2018-11-11T16:30:34+01:00</time>
      </trkpt>
      <trkpt lat="43.61873" lon="3.60282">
        <ele>249</ele>
        <time>2018-11-11T16:30:39+01:00</time>
      </trkpt>
      <trkpt lat="43.6188" lon="3.60258">
        <ele>250</ele>
        <time>2018-11-11T16:30:44+01:00</time>
      </trkpt>
      <trkpt lat="43.61883" lon="3.60233">
        <ele>252</ele>
        <time>2018-11-11T16:30:49+01:00</time>
      </trkpt>
      <trkpt lat="43.61883" lon="3.6021">
        <ele>253</ele>
        <time>2018-11-11T16:30:54+01:00</time>
      </trkpt>
      <trkpt lat="43.61891" lon="3.60167">
        <ele>255</ele>
        <time>2018-11-11T16:30:59+01:00</time>
      </trkpt>
      <trkpt lat="43.6189" lon="3.6014">
        <ele>256</ele>
        <time>2018-11-11T16:31:04+01:00</time>
      </trkpt>
      <trkpt lat="43.61897" lon="3.60115">
        <ele>258</ele>
        <time>2018-11-11T16:31:09+01:00</time>
      </trkpt>
      <trkpt lat="43.619" lon="3.60086">
        <ele>259</ele>
        <time>2018-11-11T16:31:14+01:00</time>
      </trkpt>
      <trkpt lat="43.61938" lon="3.60009">
        <ele>261</ele>
        <time>2018-11-11T16:31:19+01:00</time>
      </trkpt>
      <trkpt lat="43.61941" lon="3.59987">
        <ele>260</ele>
        <time>2018-11-11T16:31:24+01:00</time>
      </trkpt>
      <trkpt lat="43.61946" lon="3.59977">
        <ele>260</ele>
        <time>2018-11-11T16:31:29+01:00</time>
      </trkpt>
      <trkpt lat="43.61955" lon="3.59966">
        <ele>258</ele>
        <time>2018-11-11T16:31:34+01:00</time>
      </trkpt>
      <trkpt lat="43.61957" lon="3.59946">
        <ele>258</ele>
        <time>2018-11-11T16:31:39+01:00</time>
      </trkpt>
      <trkpt lat="43.61966" lon="3.59916">
        <ele>256</ele>
        <time>2018-11-11T16:31:44+01:00</time>
      </trkpt>
      <trkpt lat="43.61974" lon="3.59885">
        <ele>252</ele>
        <time>2018-11-11T16:31:49+01:00</time>
      </trkpt>
      <trkpt lat="43.61978" lon="3.59878">
        <ele>252</ele>
        <time>2018-11-11T16:31:54+01:00</time>
      </trkpt>
      <trkpt lat="43.61979" lon="3.59871">
        <ele>251</ele>
        <time>2018-11-11T16:31:59+01:00</time>
      </trkpt>
      <trkpt lat="43.61978" lon="3.59863">
        <ele>250</ele>
        <time>2018-11-11T16:32:04+01:00</time>
      </trkpt>
      <trkpt lat="43.6198" lon="3.59854">
        <ele>249</ele>
        <time>2018-11-11T16:32:09+01:00</time>
      </trkpt>
      <trkpt lat="43.61984" lon="3.59843">
        <ele>248</ele>
        <time>2018-11-11T16:32:14+01:00</time>
      </trkpt>
      <trkpt lat="43.6198" lon="3.59816">
        <ele>245</ele>
        <time>2018-11-11T16:32:19+01:00</time>
      </trkpt>
      <trkpt lat="43.61998" lon="3.59759">
        <ele>241</ele>
        <time>2018-11-11T16:32:24+01:00</time>
      </trkpt>
      <trkpt lat="43.61987" lon="3.59712">
        <ele>236</ele>
        <time>2018-11-11T16:32:29+01:00</time>
      </trkpt>
      <trkpt lat="43.61983" lon="3.5966">
        <ele>230</ele>
        <time>2018-11-11T16:32:34+01:00</time>
      </trkpt>
      <trkpt lat="43.61974" lon="3.59633">
        <ele>226</ele>
        <time>2018-11-11T16:32:39+01:00</time>
      </trkpt>
      <trkpt lat="43.61969" lon="3.59608">
        <ele>224</ele>
        <time>2018-11-11T16:32:44+01:00</time>
      </trkpt>
      <trkpt lat="43.61959" lon="3.59583">
        <ele>221</ele>
        <time>2018-11-11T16:32:49+01:00</time>
      </trkpt>
      <trkpt lat="43.61953" lon="3.59558">
        <ele>219</ele>
        <time>2018-11-11T16:32:54+01:00</time>
      </trkpt>
      <trkpt lat="43.61949" lon="3.59533">
        <ele>217</ele>
        <time>2018-11-11T16:32:59+01:00</time>
      </trkpt>
      <trkpt lat="43.61946" lon="3.59496">
        <ele>215</ele>
        <time>2018-11-11T16:33:04+01:00</time>
      </trkpt>
      <trkpt lat="43.61939" lon="3.59453">
        <ele>211</ele>
        <time>2018-11-11T16:33:09+01:00</time>
      </trkpt>
      <trkpt lat="43.61936" lon="3.59433">
        <ele>209</ele>
        <time>2018-11-11T16:33:14+01:00</time>
      </trkpt>
      <trkpt lat="43.61937" lon="3.59417">
        <ele>208</ele>
        <time>2018-11-11T16:33:19+01:00</time>
      </trkpt>
      <trkpt lat="43.6193" lon="3.59356">
        <ele>203</ele>
        <time>2018-11-11T16:33:24+01:00</time>
      </trkpt>
      <trkpt lat="43.61927" lon="3.59349">
        <ele>203</ele>
        <time>2018-11-11T16:33:29+01:00</time>
      </trkpt>
      <trkpt lat="43.61926" lon="3.593">
        <ele>201</ele>
        <time>2018-11-11T16:33:34+01:00</time>
      </trkpt>
      <trkpt lat="43.61928" lon="3.59253">
        <ele>200</ele>
        <time>2018-11-11T16:33:39+01:00</time>
      </trkpt>
      <trkpt lat="43.61929" lon="3.59226">
        <ele>199</ele>
        <time>2018-11-11T16:33:44+01:00</time>
      </trkpt>
      <trkpt lat="43.61925" lon="3.59192">
        <ele>199</ele>
        <time>2018-11-11T16:33:49+01:00</time>
      </trkpt>
      <trkpt lat="43.61928" lon="3.59165">
        <ele>199</ele>
        <time>2018-11-11T16:33:54+01:00</time>
      </trkpt>
      <trkpt lat="43.61935" lon="3.59138">
        <ele>199</ele>
        <time>2018-11-11T16:33:59+01:00</time>
      </trkpt>
      <trkpt lat="43.61935" lon="3.59128">
        <ele>199</ele>
        <time>2018-11-11T16:34:04+01:00</time>
      </trkpt>
      <trkpt lat="43.61925" lon="3.59082">
        <ele>199</ele>
        <time>2018-11-11T16:34:09+01:00</time>
      </trkpt>
      <trkpt lat="43.61935" lon="3.59051">
        <ele>197</ele>
        <time>2018-11-11T16:34:14+01:00</time>
      </trkpt>
      <trkpt lat="43.6197" lon="3.59046">
        <ele>196</ele>
        <time>2018-11-11T16:34:19+01:00</time>
      </trkpt>
      <trkpt lat="43.62007" lon="3.59034">
        <ele>194</ele>
        <time>2018-11-11T16:34:24+01:00</time>
      </trkpt>
      <trkpt lat="43.62033" lon="3.59028">
        <ele>192</ele>
        <time>2018-11-11T16:34:29+01:00</time>
      </trkpt>
      <trkpt lat="43.6206" lon="3.5902">
        <ele>190</ele>
        <time>2018-11-11T16:34:34+01:00</time>
      </trkpt>
      <trkpt lat="43.62074" lon="3.59005">
        <ele>189</ele>
        <time>2018-11-11T16:34:39+01:00</time>
      </trkpt>
      <trkpt lat="43.62078" lon="3.58979">
        <ele>187</ele>
        <time>2018-11-11T16:34:44+01:00</time>
      </trkpt>
      <trkpt lat="43.62083" lon="3.58956">
        <ele>185</ele>
        <time>2018-11-11T16:34:49+01:00</time>
      </trkpt>
      <trkpt lat="43.62095" lon="3.58934">
        <ele>182</ele>
        <time>2018-11-11T16:34:54+01:00</time>
      </trkpt>
      <trkpt lat="43.62111" lon="3.58919">
        <ele>179</ele>
        <time>2018-11-11T16:34:59+01:00</time>
      </trkpt>
      <trkpt lat="43.62151" lon="3.58891">
        <ele>174</ele>
        <time>2018-11-11T16:35:04+01:00</time>
      </trkpt>
      <trkpt lat="43.62184" lon="3.58862">
        <ele>173</ele>
        <time>2018-11-11T16:35:09+01:00</time>
      </trkpt>
      <trkpt lat="43.62198" lon="3.58835">
        <ele>172</ele>
        <time>2018-11-11T16:35:14+01:00</time>
      </trkpt>
      <trkpt lat="43.62209" lon="3.58823">
        <ele>172</ele>
        <time>2018-11-11T16:35:19+01:00</time>
      </trkpt>
      <trkpt lat="43.62218" lon="3.58788">
        <ele>170</ele>
        <time>2018-11-11T16:35:24+01:00</time>
      </trkpt>
      <trkpt lat="43.62235" lon="3.58699">
        <ele>163</ele>
        <time>2018-11-11T16:35:29+01:00</time>
      </trkpt>
      <trkpt lat="43.62246" lon="3.58685">
        <ele>161</ele>
        <time>2018-11-11T16:35:34+01:00</time>
      </trkpt>
      <trkpt lat="43.6226" lon="3.58646">
        <ele>159</ele>
        <time>2018-11-11T16:35:39+01:00</time>
      </trkpt>
      <trkpt lat="43.6227" lon="3.58623">
        <ele>160</ele>
        <time>2018-11-11T16:35:44+01:00</time>
      </trkpt>
      <trkpt lat="43.62275" lon="3.58594">
        <ele>159</ele>
        <time>2018-11-11T16:35:49+01:00</time>
      </trkpt>
      <trkpt lat="43.62273" lon="3.58559">
        <ele>158</ele>
        <time>2018-11-11T16:35:54+01:00</time>
      </trkpt>
      <trkpt lat="43.62269" lon="3.58524">
        <ele>157</ele>
        <time>2018-11-11T16:35:59+01:00</time>
      </trkpt>
      <trkpt lat="43.62269" lon="3.58504">
        <ele>157</ele>
        <time>2018-11-11T16:36:04+01:00</time>
      </trkpt>
      <trkpt lat="43.62279" lon="3.5849">
        <ele>157</ele>
        <time>2018-11-11T16:36:09+01:00</time>
      </trkpt>
      <trkpt lat="43.62292" lon="3.58469">
        <ele>157</ele>
        <time>2018-11-11T16:36:14+01:00</time>
      </trkpt>
      <trkpt lat="43.62299" lon="3.58458">
        <ele>157</ele>
        <time>2018-11-11T16:36:19+01:00</time>
      </trkpt>
      <trkpt lat="43.62305" lon="3.5844">
        <ele>157</ele>
        <time>2018-11-11T16:36:24+01:00</time>
      </trkpt>
      <trkpt lat="43.62327" lon="3.58426">
        <ele>155</ele>
        <time>2018-11-11T16:36:29+01:00</time>
      </trkpt>
      <trkpt lat="43.62353" lon="3.5841">
        <ele>152</ele>
        <time>2018-11-11T16:36:34+01:00</time>
      </trkpt>
      <trkpt lat="43.62403" lon="3.58389">
        <ele>144</ele>
        <time>2018-11-11T16:36:39+01:00</time>
      </trkpt>
      <trkpt lat="43.62425" lon="3.58373">
        <ele>141</ele>
        <time>2018-11-11T16:36:44+01:00</time>
      </trkpt>
      <trkpt lat="43.62447" lon="3.58358">
        <ele>139</ele>
        <time>2018-11-11T16:36:49+01:00</time>
      </trkpt>
      <trkpt lat="43.62489" lon="3.58344">
        <ele>135</ele>
        <time>2018-11-11T16:36:54+01:00</time>
      </trkpt>
      <trkpt lat="43.62498" lon="3.58331">
        <ele>133</ele>
        <time>2018-11-11T16:36:59+01:00</time>
      </trkpt>
      <trkpt lat="43.62508" lon="3.58299">
        <ele>133</ele>
        <time>2018-11-11T16:37:04+01:00</time>
      </trkpt>
      <trkpt lat="43.62515" lon="3.58277">
        <ele>134</ele>
        <time>2018-11-11T16:37:09+01:00</time>
      </trkpt>
      <trkpt lat="43.62519" lon="3.58248">
        <ele>135</ele>
        <time>2018-11-11T16:37:14+01:00</time>
      </trkpt>
      <trkpt lat="43.62526" lon="3.58218">
        <ele>135</ele>
        <time>2018-11-11T16:37:19+01:00</time>
      </trkpt>
      <trkpt lat="43.62537" lon="3.58198">
        <ele>135</ele>
        <time>2018-11-11T16:37:24+01:00</time>
      </trkpt>
      <trkpt lat="43.62547" lon="3.58179">
        <ele>135</ele>
        <time>2018-11-11T16:37:29+01:00</time>
      </trkpt>
      <trkpt lat="43.62556" lon="3.5815">
        <ele>133</ele>
        <time>2018-11-11T16:37:34+01:00</time>
      </trkpt>
      <trkpt lat="43.62566" lon="3.58132">
        <ele>131</ele>
        <time>2018-11-11T16:37:39+01:00</time>
      </trkpt>
      <trkpt lat="43.62574" lon="3.58098">
        <ele>129</ele>
        <time>2018-11-11T16:37:44+01:00</time>
      </trkpt>
      <trkpt lat="43.62586" lon="3.58069">
        <ele>127</ele>
        <time>2018-11-11T16:37:49+01:00</time>
      </trkpt>
      <trkpt lat="43.62596" lon="3.5804">
        <ele>127</ele>
        <time>2018-11-11T16:37:54+01:00</time>
      </trkpt>
      <trkpt lat="43.62599" lon="3.58019">
        <ele>127</ele>
        <time>2018-11-11T16:37:59+01:00</time>
      </trkpt>
      <trkpt lat="43.62603" lon="3.58009">
        <ele>127</ele>
        <time>2018-11-11T16:38:04+01:00</time>
      </trkpt>
      <trkpt lat="43.62607" lon="3.58001">
        <ele>126</ele>
        <time>2018-11-11T16:38:09+01:00</time>
      </trkpt>
      <trkpt lat="43.62614" lon="3.57982">
        <ele>126</ele>
        <time>2018-11-11T16:38:14+01:00</time>
      </trkpt>
      <trkpt lat="43.62618" lon="3.57963">
        <ele>125</ele>
        <time>2018-11-11T16:38:19+01:00</time>
      </trkpt>
      <trkpt lat="43.6263" lon="3.57921">
        <ele>121</ele>
        <time>2018-11-11T16:38:24+01:00</time>
      </trkpt>
      <trkpt lat="43.62643" lon="3.579">
        <ele>119</ele>
        <time>2018-11-11T16:38:29+01:00</time>
      </trkpt>
      <trkpt lat="43.62658" lon="3.57881">
        <ele>117</ele>
        <time>2018-11-11T16:38:34+01:00</time>
      </trkpt>
      <trkpt lat="43.62683" lon="3.57852">
        <ele>114</ele>
        <time>2018-11-11T16:38:39+01:00</time>
      </trkpt>
      <trkpt lat="43.627" lon="3.57839">
        <ele>112</ele>
        <time>2018-11-11T16:38:44+01:00</time>
      </trkpt>
      <trkpt lat="43.62715" lon="3.57823">
        <ele>111</ele>
        <time>2018-11-11T16:38:49+01:00</time>
      </trkpt>
      <trkpt lat="43.62727" lon="3.57811">
        <ele>111</ele>
        <time>2018-11-11T16:38:54+01:00</time>
      </trkpt>
      <trkpt lat="43.62742" lon="3.57807">
        <ele>110</ele>
        <time>2018-11-11T16:38:59+01:00</time>
      </trkpt>
      <trkpt lat="43.62784" lon="3.57799">
        <ele>108</ele>
        <time>2018-11-11T16:39:04+01:00</time>
      </trkpt>
      <trkpt lat="43.628" lon="3.57806">
        <ele>106</ele>
        <time>2018-11-11T16:39:09+01:00</time>
      </trkpt>
      <trkpt lat="43.62816" lon="3.57809">
        <ele>105</ele>
        <time>2018-11-11T16:39:14+01:00</time>
      </trkpt>
      <trkpt lat="43.62839" lon="3.57814">
        <ele>103</ele>
        <time>2018-11-11T16:39:19+01:00</time>
      </trkpt>
      <trkpt lat="43.62852" lon="3.5782">
        <ele>101</ele>
        <time>2018-11-11T16:39:24+01:00</time>
      </trkpt>
      <trkpt lat="43.62891" lon="3.57845">
        <ele>99</ele>
        <time>2018-11-11T16:39:29+01:00</time>
      </trkpt>
      <trkpt lat="43.6292" lon="3.57785">
        <ele>99</ele>
        <time>2018-11-11T16:39:34+01:00</time>
      </trkpt>
      <trkpt lat="43.62925" lon="3.57768">
        <ele>99</ele>
        <time>2018-11-11T16:39:39+01:00</time>
      </trkpt>
      <trkpt lat="43.62928" lon="3.57751">
        <ele>99</ele>
        <time>2018-11-11T16:39:44+01:00</time>
      </trkpt>
      <trkpt lat="43.62932" lon="3.57704">
        <ele>99</ele>
        <time>2018-11-11T16:39:49+01:00</time>
      </trkpt>
      <trkpt lat="43.62942" lon="3.57676">
        <ele>99</ele>
        <time>2018-11-11T16:39:54+01:00</time>
      </trkpt>
      <trkpt lat="43.62954" lon="3.5765">
        <ele>98</ele>
        <time>2018-11-11T16:39:59+01:00</time>
      </trkpt>
      <trkpt lat="43.62966" lon="3.57619">
        <ele>97</ele>
        <time>2018-11-11T16:40:04+01:00</time>
      </trkpt>
      <trkpt lat="43.6298" lon="3.57581">
        <ele>96</ele>
        <time>2018-11-11T16:40:09+01:00</time>
      </trkpt>
      <trkpt lat="43.62959" lon="3.57515">
        <ele>99</ele>
        <time>2018-11-11T16:40:14+01:00</time>
      </trkpt>
      <trkpt lat="43.62942" lon="3.57463">
        <ele>99</ele>
        <time>2018-11-11T16:40:19+01:00</time>
      </trkpt>
      <trkpt lat="43.62927" lon="3.57393">
        <ele>99</ele>
        <time>2018-11-11T16:40:24+01:00</time>
      </trkpt>
      <trkpt lat="43.62919" lon="3.57363">
        <ele>99</ele>
        <time>2018-11-11T16:40:29+01:00</time>
      </trkpt>
      <trkpt lat="43.62913" lon="3.57333">
        <ele>98</ele>
        <time>2018-11-11T16:40:34+01:00</time>
      </trkpt>
      <trkpt lat="43.629" lon="3.5727">
        <ele>95</ele>
        <time>2018-11-11T16:40:39+01:00</time>
      </trkpt>
      <trkpt lat="43.62894" lon="3.57156">
        <ele>93</ele>
        <time>2018-11-11T16:40:44+01:00</time>
      </trkpt>
      <trkpt lat="43.62878" lon="3.57143">
        <ele>93</ele>
        <time>2018-11-11T16:40:49+01:00</time>
      </trkpt>
      <trkpt lat="43.62866" lon="3.57108">
        <ele>93</ele>
        <time>2018-11-11T16:40:54+01:00</time>
      </trkpt>
      <trkpt lat="43.62853" lon="3.57049">
        <ele>91</ele>
        <time>2018-11-11T16:40:59+01:00</time>
      </trkpt>
      <trkpt lat="43.62831" lon="3.57008">
        <ele>88</ele>
        <time>2018-11-11T16:41:04+01:00</time>
      </trkpt>
      <trkpt lat="43.62802" lon="3.56972">
        <ele>88</ele>
        <time>2018-11-11T16:41:09+01:00</time>
      </trkpt>
      <trkpt lat="43.62786" lon="3.56959">
        <ele>88</ele>
        <time>2018-11-11T16:41:14+01:00</time>
      </trkpt>
      <trkpt lat="43.62772" lon="3.56941">
        <ele>88</ele>
        <time>2018-11-11T16:41:19+01:00</time>
      </trkpt>
      <trkpt lat="43.62754" lon="3.56884">
        <ele>87</ele>
        <time>2018-11-11T16:41:24+01:00</time>
      </trkpt>
      <trkpt lat="43.62565" lon="3.56949">
        <ele>98</ele>
        <time>2018-11-11T16:41:29+01:00</time>
      </trkpt>
      <trkpt lat="43.62479" lon="3.56837">
        <ele>105</ele>
        <time>2018-11-11T16:41:34+01:00</time>
      </trkpt>
      <trkpt lat="43.62445" lon="3.56872">
        <ele>105</ele>
        <time>2018-11-11T16:41:39+01:00</time>
      </trkpt>
      <trkpt lat="43.62409" lon="3.56829">
        <ele>107</ele>
        <time>2018-11-11T16:41:44+01:00</time>
      </trkpt>
      <trkpt lat="43.62376" lon="3.56783">
        <ele>104</ele>
        <time>2018-11-11T16:41:49+01:00</time>
      </trkpt>
      <trkpt lat="43.62365" lon="3.56783">
        <ele>104</ele>
        <time>2018-11-11T16:41:54+01:00</time>
      </trkpt>
      <trkpt lat="43.62315" lon="3.56836">
        <ele>103</ele>
        <time>2018-11-11T16:41:59+01:00</time>
      </trkpt>
      <trkpt lat="43.62307" lon="3.56833">
        <ele>104</ele>
        <time>2018-11-11T16:42:04+01:00</time>
      </trkpt>
      <trkpt lat="43.62215" lon="3.56689">
        <ele>99</ele>
        <time>2018-11-11T16:42:09+01:00</time>
      </trkpt>
      <trkpt lat="43.62202" lon="3.56675">
        <ele>99</ele>
        <time>2018-11-11T16:42:14+01:00</time>
      </trkpt>
      <trkpt lat="43.62173" lon="3.56661">
        <ele>100</ele>
        <time>2018-11-11T16:42:19+01:00</time>
      </trkpt>
      <trkpt lat="43.62148" lon="3.56639">
        <ele>99</ele>
        <time>2018-11-11T16:42:24+01:00</time>
      </trkpt>
      <trkpt lat="43.62138" lon="3.56633">
        <ele>99</ele>
        <time>2018-11-11T16:42:29+01:00</time>
      </trkpt>
      <trkpt lat="43.62087" lon="3.56627">
        <ele>100</ele>
        <time>2018-11-11T16:42:34+01:00</time>
      </trkpt>
      <trkpt lat="43.62069" lon="3.56619">
        <ele>101</ele>
        <time>2018-11-11T16:42:39+01:00</time>
      </trkpt>
      <trkpt lat="43.62015" lon="3.56577">
        <ele>102</ele>
        <time>2018-11-11T16:42:44+01:00</time>
      </trkpt>
      <trkpt lat="43.62011" lon="3.56558">
        <ele>102</ele>
        <time>2018-11-11T16:42:49+01:00</time>
      </trkpt>
      <trkpt lat="43.61977" lon="3.56564">
        <ele>103</ele>
        <time>2018-11-11T16:42:54+01:00</time>
      </trkpt>
      <trkpt lat="43.61966" lon="3.56578">
        <ele>104</ele>
        <time>2018-11-11T16:42:59+01:00</time>
      </trkpt>
      <trkpt lat="43.61952" lon="3.56587">
        <ele>104</ele>
        <time>2018-11-11T16:43:04+01:00</time>
      </trkpt>
      <trkpt lat="43.61917" lon="3.56608">
        <ele>106</ele>
        <time>2018-11-11T16:43:09+01:00</time>
      </trkpt>
      <trkpt lat="43.61907" lon="3.56617">
        <ele>107</ele>
        <time>2018-11-11T16:43:14+01:00</time>
      </trkpt>
      <trkpt lat="43.6189" lon="3.56654">
        <ele>110</ele>
        <time>2018-11-11T16:43:19+01:00</time>
      </trkpt>
      <trkpt lat="43.61881" lon="3.56676">
        <ele>111</ele>
        <time>2018-11-11T16:43:24+01:00</time>
      </trkpt>
      <trkpt lat="43.61869" lon="3.56697">
        <ele>112</ele>
        <time>2018-11-11T16:43:29+01:00</time>
      </trkpt>
      <trkpt lat="43.61863" lon="3.56691">
        <ele>112</ele>
        <time>2018-11-11T16:43:34+01:00</time>
      </trkpt>
      <trkpt lat="43.61839" lon="3.5669">
        <ele>113</ele>
        <time>2018-11-11T16:43:39+01:00</time>
      </trkpt>
      <trkpt lat="43.61819" lon="3.56698">
        <ele>115</ele>
        <time>2018-11-11T16:43:44+01:00</time>
      </trkpt>
      <trkpt lat="43.61769" lon="3.56706">
        <ele>118</ele>
        <time>2018-11-11T16:43:49+01:00</time>
      </trkpt>
      <trkpt lat="43.61776" lon="3.56659">
        <ele>118</ele>
        <time>2018-11-11T16:43:54+01:00</time>
      </trkpt>
      <trkpt lat="43.61788" lon="3.56631">
        <ele>118</ele>
        <time>2018-11-11T16:43:59+01:00</time>
      </trkpt>
      <trkpt lat="43.61806" lon="3.56609">
        <ele>117</ele>
        <time>2018-11-11T16:44:04+01:00</time>
      </trkpt>
      <trkpt lat="43.61792" lon="3.5654">
        <ele>121</ele>
        <time>2018-11-11T16:44:09+01:00</time>
      </trkpt>
      <trkpt lat="43.61794" lon="3.56506">
        <ele>121</ele>
        <time>2018-11-11T16:44:14+01:00</time>
      </trkpt>
      <trkpt lat="43.61813" lon="3.56466">
        <ele>119</ele>
        <time>2018-11-11T16:44:19+01:00</time>
      </trkpt>
      <trkpt lat="43.61827" lon="3.56423">
        <ele>117</ele>
        <time>2018-11-11T16:44:24+01:00</time>
      </trkpt>
      <trkpt lat="43.61821" lon="3.56364">
        <ele>120</ele>
        <time>2018-11-11T16:44:29+01:00</time>
      </trkpt>
      <trkpt lat="43.61821" lon="3.56343">
        <ele>120</ele>
        <time>2018-11-11T16:44:34+01:00</time>
      </trkpt>
      <trkpt lat="43.61806" lon="3.56313">
        <ele>122</ele>
        <time>2018-11-11T16:44:39+01:00</time>
      </trkpt>
      <trkpt lat="43.6179" lon="3.56301">
        <ele>123</ele>
        <time>2018-11-11T16:44:44+01:00</time>
      </trkpt>
      <trkpt lat="43.61777" lon="3.56262">
        <ele>123</ele>
        <time>2018-11-11T16:44:49+01:00</time>
      </trkpt>
      <trkpt lat="43.61804" lon="3.56222">
        <ele>118</ele>
        <time>2018-11-11T16:44:54+01:00</time>
      </trkpt>
      <trkpt lat="43.6182" lon="3.56181">
        <ele>116</ele>
        <time>2018-11-11T16:44:59+01:00</time>
      </trkpt>
      <trkpt lat="43.61806" lon="3.56121">
        <ele>118</ele>
        <time>2018-11-11T16:45:04+01:00</time>
      </trkpt>
      <trkpt lat="43.61794" lon="3.56111">
        <ele>119</ele>
        <time>2018-11-11T16:45:09+01:00</time>
      </trkpt>
      <trkpt lat="43.61789" lon="3.56099">
        <ele>119</ele>
        <time>2018-11-11T16:45:14+01:00</time>
      </trkpt>
      <trkpt lat="43.61783" lon="3.56089">
        <ele>119</ele>
        <time>2018-11-11T16:45:19+01:00</time>
      </trkpt>
      <trkpt lat="43.61783" lon="3.56064">
        <ele>119</ele>
        <time>2018-11-11T16:45:24+01:00</time>
      </trkpt>
      <trkpt lat="43.6179" lon="3.56068">
        <ele>119</ele>
        <time>2018-11-11T16:45:29+01:00</time>
      </trkpt>
      <trkpt lat="43.61799" lon="3.56062">
        <ele>119</ele>
        <time>2018-11-11T16:45:34+01:00</time>
      </trkpt>
      <trkpt lat="43.61806" lon="3.56054">
        <ele>119</ele>
        <time>2018-11-11T16:45:39+01:00</time>
      </trkpt>
      <trkpt lat="43.61815" lon="3.56041">
        <ele>119</ele>
        <time>2018-11-11T16:45:44+01:00</time>
      </trkpt>
      <trkpt lat="43.61828" lon="3.56027">
        <ele>120</ele>
        <time>2018-11-11T16:45:49+01:00</time>
      </trkpt>
      <trkpt lat="43.61837" lon="3.56007">
        <ele>120</ele>
        <time>2018-11-11T16:45:54+01:00</time>
      </trkpt>
      <trkpt lat="43.61845" lon="3.55989">
        <ele>121</ele>
        <time>2018-11-11T16:45:59+01:00</time>
      </trkpt>
      <trkpt lat="43.61849" lon="3.55968">
        <ele>122</ele>
        <time>2018-11-11T16:46:04+01:00</time>
      </trkpt>
      <trkpt lat="43.61827" lon="3.55969">
        <ele>124</ele>
        <time>2018-11-11T16:46:09+01:00</time>
      </trkpt>
      <trkpt lat="43.61804" lon="3.55968">
        <ele>124</ele>
        <time>2018-11-11T16:46:14+01:00</time>
      </trkpt>
      <trkpt lat="43.61784" lon="3.55961">
        <ele>125</ele>
        <time>2018-11-11T16:46:19+01:00</time>
      </trkpt>
      <trkpt lat="43.61765" lon="3.55948">
        <ele>127</ele>
        <time>2018-11-11T16:46:24+01:00</time>
      </trkpt>
      <trkpt lat="43.6174" lon="3.5593">
        <ele>129</ele>
        <time>2018-11-11T16:46:29+01:00</time>
      </trkpt>
      <trkpt lat="43.61718" lon="3.55907">
        <ele>130</ele>
        <time>2018-11-11T16:46:34+01:00</time>
      </trkpt>
      <trkpt lat="43.61703" lon="3.55877">
        <ele>131</ele>
        <time>2018-11-11T16:46:39+01:00</time>
      </trkpt>
      <trkpt lat="43.61683" lon="3.55847">
        <ele>131</ele>
        <time>2018-11-11T16:46:44+01:00</time>
      </trkpt>
      <trkpt lat="43.61674" lon="3.55842">
        <ele>130</ele>
        <time>2018-11-11T16:46:49+01:00</time>
      </trkpt>
      <trkpt lat="43.61654" lon="3.55862">
        <ele>130</ele>
        <time>2018-11-11T16:46:54+01:00</time>
      </trkpt>
      <trkpt lat="43.61649" lon="3.55855">
        <ele>130</ele>
        <time>2018-11-11T16:46:59+01:00</time>
      </trkpt>
      <trkpt lat="43.61652" lon="3.55841">
        <ele>130</ele>
        <time>2018-11-11T16:47:04+01:00</time>
      </trkpt>
      <trkpt lat="43.61638" lon="3.55838">
        <ele>130</ele>
        <time>2018-11-11T16:47:09+01:00</time>
      </trkpt>
      <trkpt lat="43.61648" lon="3.55814">
        <ele>128</ele>
        <time>2018-11-11T16:47:14+01:00</time>
      </trkpt>
      <trkpt lat="43.61643" lon="3.55797">
        <ele>127</ele>
        <time>2018-11-11T16:47:19+01:00</time>
      </trkpt>
      <trkpt lat="43.61586" lon="3.55746">
        <ele>124</ele>
        <time>2018-11-11T16:47:24+01:00</time>
      </trkpt>
      <trkpt lat="43.61576" lon="3.55709">
        <ele>125</ele>
        <time>2018-11-11T16:47:29+01:00</time>
      </trkpt>
      <trkpt lat="43.61579" lon="3.55682">
        <ele>124</ele>
        <time>2018-11-11T16:47:34+01:00</time>
      </trkpt>
      <trkpt lat="43.61561" lon="3.55648">
        <ele>128</ele>
        <time>2018-11-11T16:47:39+01:00</time>
      </trkpt>
      <trkpt lat="43.61552" lon="3.55627">
        <ele>131</ele>
        <time>2018-11-11T16:47:44+01:00</time>
      </trkpt>
      <trkpt lat="43.61556" lon="3.55573">
        <ele>131</ele>
        <time>2018-11-11T16:47:49+01:00</time>
      </trkpt>
      <trkpt lat="43.61552" lon="3.55549">
        <ele>131</ele>
        <time>2018-11-11T16:47:54+01:00</time>
      </trkpt>
      <trkpt lat="43.61529" lon="3.55544">
        <ele>137</ele>
        <time>2018-11-11T16:47:59+01:00</time>
      </trkpt>
      <trkpt lat="43.61546" lon="3.55524">
        <ele>132</ele>
        <time>2018-11-11T16:48:04+01:00</time>
      </trkpt>
      <trkpt lat="43.61544" lon="3.55501">
        <ele>132</ele>
        <time>2018-11-11T16:48:09+01:00</time>
      </trkpt>
      <trkpt lat="43.61552" lon="3.55477">
        <ele>130</ele>
        <time>2018-11-11T16:48:14+01:00</time>
      </trkpt>
      <trkpt lat="43.61554" lon="3.55466">
        <ele>129</ele>
        <time>2018-11-11T16:48:19+01:00</time>
      </trkpt>
      <trkpt lat="43.61561" lon="3.55457">
        <ele>128</ele>
        <time>2018-11-11T16:48:24+01:00</time>
      </trkpt>
      <trkpt lat="43.6158" lon="3.55429">
        <ele>125</ele>
        <time>2018-11-11T16:48:29+01:00</time>
      </trkpt>
      <trkpt lat="43.61589" lon="3.55402">
        <ele>121</ele>
        <time>2018-11-11T16:48:34+01:00</time>
      </trkpt>
      <trkpt lat="43.61584" lon="3.55377">
        <ele>119</ele>
        <time>2018-11-11T16:48:39+01:00</time>
      </trkpt>
      <trkpt lat="43.61562" lon="3.55354">
        <ele>117</ele>
        <time>2018-11-11T16:48:44+01:00</time>
      </trkpt>
      <trkpt lat="43.61549" lon="3.55352">
        <ele>117</ele>
        <time>2018-11-11T16:48:49+01:00</time>
      </trkpt>
      <trkpt lat="43.6154" lon="3.55342">
        <ele>116</ele>
        <time>2018-11-11T16:48:54+01:00</time>
      </trkpt>
      <trkpt lat="43.61527" lon="3.55334">
        <ele>115</ele>
        <time>2018-11-11T16:48:59+01:00</time>
      </trkpt>
      <trkpt lat="43.61513" lon="3.55314">
        <ele>114</ele>
        <time>2018-11-11T16:49:04+01:00</time>
      </trkpt>
      <trkpt lat="43.61503" lon="3.55301">
        <ele>113</ele>
        <time>2018-11-11T16:49:09+01:00</time>
      </trkpt>
      <trkpt lat="43.61501" lon="3.55285">
        <ele>111</ele>
        <time>2018-11-11T16:49:14+01:00</time>
      </trkpt>
      <trkpt lat="43.61511" lon="3.55282">
        <ele>110</ele>
        <time>2018-11-11T16:49:19+01:00</time>
      </trkpt>
      <trkpt lat="43.61537" lon="3.55287">
        <ele>109</ele>
        <time>2018-11-11T16:49:24+01:00</time>
      </trkpt>
      <trkpt lat="43.61551" lon="3.55252">
        <ele>104</ele>
        <time>2018-11-11T16:49:29+01:00</time>
      </trkpt>
      <trkpt lat="43.61555" lon="3.55241">
        <ele>103</ele>
        <time>2018-11-11T16:49:34+01:00</time>
      </trkpt>
      <trkpt lat="43.6157" lon="3.55227">
        <ele>102</ele>
        <time>2018-11-11T16:49:39+01:00</time>
      </trkpt>
      <trkpt lat="43.61575" lon="3.55195">
        <ele>100</ele>
        <time>2018-11-11T16:49:44+01:00</time>
      </trkpt>
      <trkpt lat="43.61579" lon="3.55127">
        <ele>98</ele>
        <time>2018-11-11T16:49:49+01:00</time>
      </trkpt>
      <trkpt lat="43.6159" lon="3.55064">
        <ele>97</ele>
        <time>2018-11-11T16:49:54+01:00</time>
      </trkpt>
      <trkpt lat="43.61603" lon="3.54982">
        <ele>95</ele>
        <time>2018-11-11T16:49:59+01:00</time>
      </trkpt>
      <trkpt lat="43.61613" lon="3.54919">
        <ele>92</ele>
        <time>2018-11-11T16:50:04+01:00</time>
      </trkpt>
      <trkpt lat="43.61621" lon="3.54909">
        <ele>92</ele>
        <time>2018-11-11T16:50:09+01:00</time>
      </trkpt>
      <trkpt lat="43.6164" lon="3.54891">
        <ele>92</ele>
        <time>2018-11-11T16:50:14+01:00</time>
      </trkpt>
      <trkpt lat="43.61644" lon="3.54843">
        <ele>92</ele>
        <time>2018-11-11T16:50:19+01:00</time>
      </trkpt>
      <trkpt lat="43.61655" lon="3.54807">
        <ele>93</ele>
        <time>2018-11-11T16:50:24+01:00</time>
      </trkpt>
      <trkpt lat="43.61671" lon="3.54775">
        <ele>94</ele>
        <time>2018-11-11T16:50:29+01:00</time>
      </trkpt>
      <trkpt lat="43.61683" lon="3.54745">
        <ele>94</ele>
        <time>2018-11-11T16:50:34+01:00</time>
      </trkpt>
      <trkpt lat="43.61682" lon="3.54724">
        <ele>95</ele>
        <time>2018-11-11T16:50:39+01:00</time>
      </trkpt>
      <trkpt lat="43.6169" lon="3.54706">
        <ele>95</ele>
        <time>2018-11-11T16:50:44+01:00</time>
      </trkpt>
      <trkpt lat="43.61676" lon="3.5466">
        <ele>96</ele>
        <time>2018-11-11T16:50:49+01:00</time>
      </trkpt>
      <trkpt lat="43.61673" lon="3.5465">
        <ele>95</ele>
        <time>2018-11-11T16:50:54+01:00</time>
      </trkpt>
      <trkpt lat="43.61667" lon="3.5464">
        <ele>95</ele>
        <time>2018-11-11T16:50:59+01:00</time>
      </trkpt>
      <trkpt lat="43.61657" lon="3.54645">
        <ele>95</ele>
        <time>2018-11-11T16:51:04+01:00</time>
      </trkpt>
    </trkseg>
  </trk>
</gpx>